createdAt,value
2023-01-18T00:01:49.924Z,1.24
2023-01-18T00:04:52.521Z,1.26
2023-01-18T00:07:55.269Z,1.24
2023-01-18T00:11:05.439Z,1.10
2023-01-18T00:14:07.939Z,1.07
2023-01-18T00:17:10.540Z,1.05
2023-01-18T00:20:15.509Z,1.03
2023-01-18T00:23:18.067Z,1.10
2023-01-18T00:26:20.723Z,1.08
2023-01-18T00:29:23.233Z,1.13
2023-01-18T00:32:25.968Z,1.00
2023-01-18T00:35:28.569Z,0.98
2023-01-18T00:38:31.679Z,0.98
2023-01-18T00:41:34.353Z,1.05
2023-01-18T00:44:36.899Z,1.09
2023-01-18T00:47:39.544Z,1.13
2023-01-18T00:50:42.074Z,1.13
2023-01-18T00:53:45.877Z,1.11
2023-01-18T00:56:48.404Z,1.12
2023-01-18T00:59:50.923Z,1.07
2023-01-18T01:02:53.794Z,1.05
2023-01-18T01:06:15.419Z,1.03
2023-01-18T01:09:19.461Z,0.96
2023-01-18T01:12:40.488Z,0.91
2023-01-18T01:16:01.961Z,0.98
2023-01-18T01:19:23.422Z,1.05
2023-01-18T01:22:44.627Z,1.11
2023-01-18T01:26:08.168Z,1.14
2023-01-18T01:29:10.770Z,1.12
2023-01-18T01:32:13.626Z,1.11
2023-01-18T01:35:16.239Z,1.13
2023-01-18T01:38:18.717Z,1.14
2023-01-18T01:41:26.753Z,1.16
2023-01-18T01:44:34.392Z,1.15
2023-01-18T01:47:41.700Z,1.15
2023-01-18T01:50:44.123Z,1.15
2023-01-18T01:53:47.813Z,1.11
2023-01-18T01:56:52.282Z,1.19
2023-01-18T01:59:59.962Z,1.22
2023-01-18T02:03:06.579Z,1.31
2023-01-18T02:06:31.802Z,1.23
2023-01-18T02:09:34.552Z,1.20
2023-01-18T02:12:39.151Z,1.20
2023-01-18T02:16:07.349Z,1.13
2023-01-18T02:19:13.769Z,1.10
2023-01-18T02:22:48.190Z,1.11
2023-01-18T02:26:09.321Z,1.01
2023-01-18T02:29:30.297Z,1.03
2023-01-18T02:32:52.692Z,1.18
2023-01-18T02:36:00.483Z,1.29
2023-01-18T02:39:13.035Z,1.41
2023-01-18T02:42:39.658Z,1.57
2023-01-18T02:46:03.832Z,1.65
2023-01-18T02:49:13.397Z,1.64
2023-01-18T02:52:38.586Z,1.87
2023-01-18T02:56:04.197Z,1.84
2023-01-18T02:59:15.779Z,1.78
2023-01-18T03:02:21.228Z,1.68
2023-01-18T03:05:24.905Z,1.68
2023-01-18T03:08:49.143Z,1.70
2023-01-18T03:12:20.891Z,1.68
2023-01-18T03:15:29.370Z,1.78
2023-01-18T03:19:00.476Z,1.73
2023-01-18T03:22:03.333Z,1.70
2023-01-18T03:25:07.351Z,1.69
2023-01-18T03:28:37.591Z,1.74
2023-01-18T03:32:13.718Z,1.72
2023-01-18T03:35:17.429Z,1.63
2023-01-18T03:38:20.535Z,1.69
2023-01-18T03:41:25.850Z,1.59
2023-01-18T03:44:40.602Z,1.51
2023-01-18T03:47:43.117Z,1.47
2023-01-18T03:51:01.015Z,1.47
2023-01-18T03:54:16.607Z,1.46
2023-01-18T03:57:24.950Z,1.46
2023-01-18T04:00:27.575Z,1.61
2023-01-18T04:03:33.890Z,1.70
2023-01-18T04:06:36.572Z,1.72
2023-01-18T04:09:39.102Z,1.78
2023-01-18T04:12:41.686Z,1.79
2023-01-18T04:15:44.257Z,1.88
2023-01-18T04:18:46.843Z,2.00
2023-01-18T04:21:49.320Z,1.98
2023-01-18T04:24:51.819Z,2.01
2023-01-18T04:27:54.338Z,2.03
2023-01-18T04:30:57.691Z,2.06
2023-01-18T04:34:03.145Z,2.14
2023-01-18T04:37:05.636Z,2.18
2023-01-18T04:40:09.137Z,2.24
2023-01-18T04:43:11.700Z,2.21
2023-01-18T04:46:15.531Z,2.27
2023-01-18T04:49:18.176Z,2.23
2023-01-18T04:52:20.761Z,2.29
2023-01-18T04:55:23.310Z,2.33
2023-01-18T04:58:25.999Z,2.30
2023-01-18T05:01:29.808Z,2.24
2023-01-18T05:04:32.454Z,2.22
2023-01-18T05:07:35.105Z,2.26
2023-01-18T05:10:37.670Z,2.34
2023-01-18T05:13:41.158Z,2.44
2023-01-18T05:16:43.768Z,2.48
2023-01-18T05:19:47.081Z,2.52
2023-01-18T05:22:49.590Z,2.53
2023-01-18T05:25:54.020Z,2.57
2023-01-18T05:28:57.433Z,2.58
2023-01-18T05:32:00.074Z,2.64
2023-01-18T05:35:04.626Z,2.70
2023-01-18T05:38:07.223Z,2.74
2023-01-18T05:41:09.976Z,2.78
2023-01-18T05:44:12.668Z,2.77
2023-01-18T05:47:15.291Z,2.78
2023-01-18T05:50:17.973Z,2.81
2023-01-18T05:53:22.770Z,2.86
2023-01-18T05:56:25.628Z,2.88
2023-01-18T05:59:28.291Z,2.90
2023-01-18T06:02:30.873Z,2.89
2023-01-18T06:05:33.462Z,2.89
2023-01-18T06:08:36.270Z,2.92
2023-01-18T06:11:38.921Z,2.88
2023-01-18T06:14:41.488Z,2.92
2023-01-18T06:21:06.178Z,2.95
2023-01-18T06:24:08.810Z,2.96
2023-01-18T06:27:11.482Z,2.97
2023-01-18T06:30:14.518Z,3.00
2023-01-18T06:33:17.454Z,2.91
2023-01-18T06:36:20.045Z,2.89
2023-01-18T06:39:22.627Z,2.83
2023-01-18T06:42:25.224Z,2.79
2023-01-18T06:45:29.488Z,2.76
2023-01-18T06:48:32.302Z,2.67
2023-01-18T06:51:35.188Z,2.71
2023-01-18T06:54:37.768Z,2.81
2023-01-18T06:57:40.613Z,2.85
2023-01-18T07:00:43.235Z,2.80
2023-01-18T07:03:45.807Z,2.64
2023-01-18T07:06:48.415Z,2.46
2023-01-18T07:09:50.938Z,2.40
2023-01-18T07:12:53.622Z,2.42
2023-01-18T07:16:00.849Z,2.52
2023-01-18T07:19:04.829Z,2.51
2023-01-18T07:22:07.360Z,2.52
2023-01-18T07:25:13.778Z,2.48
2023-01-18T07:28:16.472Z,2.38
2023-01-18T07:31:20.436Z,2.36
2023-01-18T07:34:23.085Z,2.35
2023-01-18T07:37:25.654Z,2.36
2023-01-18T07:40:28.210Z,2.39
2023-01-18T07:43:32.600Z,2.45
2023-01-18T07:46:35.202Z,2.44
2023-01-18T07:49:37.814Z,2.53
2023-01-18T07:52:40.445Z,2.56
2023-01-18T07:55:42.934Z,2.60
2023-01-18T07:58:45.899Z,2.53
2023-01-18T08:01:48.560Z,2.49
2023-01-18T08:04:51.345Z,2.68
2023-01-18T08:07:54.480Z,2.72
2023-01-18T08:10:58.399Z,2.67
2023-01-18T08:14:01.042Z,2.69
2023-01-18T08:17:03.937Z,2.85
2023-01-18T08:20:09.566Z,2.98
2023-01-18T08:23:12.365Z,3.10
2023-01-18T08:26:15.517Z,3.08
2023-01-18T08:29:18.170Z,3.08
2023-01-18T08:32:20.785Z,3.09
2023-01-18T08:35:28.551Z,3.10
2023-01-18T08:38:31.128Z,2.89
2023-01-18T08:41:36.889Z,2.87
2023-01-18T08:44:39.412Z,2.82
2023-01-18T08:47:42.609Z,2.96
2023-01-18T08:50:46.146Z,2.94
2023-01-18T08:53:51.920Z,2.88
2023-01-18T08:56:54.706Z,2.83
2023-01-18T08:59:57.463Z,2.92
2023-01-18T09:03:02.968Z,3.12
2023-01-18T09:06:10.035Z,3.26
2023-01-18T09:09:13.941Z,3.32
2023-01-18T09:12:16.692Z,3.40
2023-01-18T09:15:19.547Z,3.39
2023-01-18T09:18:23.201Z,3.57
2023-01-18T09:21:28.197Z,3.76
2023-01-18T09:24:30.944Z,3.93
2023-01-18T09:27:33.869Z,3.94
2023-01-18T09:30:36.561Z,3.78
2023-01-18T09:33:41.208Z,3.77
2023-01-18T09:36:49.348Z,3.83
2023-01-18T09:39:52.676Z,3.70
2023-01-18T09:42:55.472Z,3.41
2023-01-18T09:45:59.930Z,3.51
2023-01-18T09:49:04.609Z,3.37
2023-01-18T09:52:27.959Z,3.40
2023-01-18T09:55:45.758Z,3.46
2023-01-18T09:59:00.007Z,3.55
2023-01-18T10:02:04.763Z,3.47
2023-01-18T10:05:12.241Z,3.46
2023-01-18T10:08:24.243Z,3.39
2023-01-18T10:11:45.164Z,3.46
2023-01-18T10:14:50.271Z,3.49
2023-01-18T10:17:56.455Z,3.56
2023-01-18T10:21:02.003Z,3.58
2023-01-18T10:24:06.918Z,3.84
2023-01-18T10:27:27.392Z,4.04
2023-01-18T10:30:38.831Z,4.17
2023-01-18T10:33:43.423Z,4.17
2023-01-18T10:36:55.066Z,3.91
2023-01-18T10:40:06.561Z,3.83
2023-01-18T10:43:12.486Z,3.90
2023-01-18T10:46:18.994Z,3.94
2023-01-18T10:49:42.396Z,3.76
2023-01-18T10:52:45.101Z,3.79
2023-01-18T10:55:56.004Z,3.98
2023-01-18T10:59:02.181Z,4.09
2023-01-18T11:02:05.232Z,4.20
2023-01-18T11:05:20.125Z,4.32
2023-01-18T11:08:33.029Z,4.36
2023-01-18T11:11:54.466Z,4.26
2023-01-18T11:14:57.398Z,4.33
2023-01-18T11:18:06.380Z,4.41
2023-01-18T11:25:04.182Z,5.00
2023-01-18T11:28:17.230Z,4.69
2023-01-18T11:31:25.738Z,4.83
2023-01-18T11:34:32.077Z,4.92
2023-01-18T11:37:43.802Z,4.56
2023-01-18T11:40:46.486Z,4.70
2023-01-18T11:44:22.923Z,4.67
2023-01-18T11:47:43.149Z,4.59
2023-01-18T11:50:59.953Z,4.95
2023-01-18T11:54:18.927Z,5.24
2023-01-18T11:57:21.647Z,5.17
2023-01-18T12:00:28.499Z,5.33
2023-01-18T12:03:40.453Z,5.30
2023-01-18T12:06:52.044Z,5.11
2023-01-18T12:09:56.585Z,4.90
2023-01-18T12:13:21.296Z,5.28
2023-01-18T12:16:29.852Z,5.52
2023-01-18T12:19:58.800Z,5.50
2023-01-18T12:23:29.136Z,4.86
2023-01-18T12:26:55.120Z,4.88
2023-01-18T12:30:05.353Z,4.67
2023-01-18T12:33:43.453Z,4.41
2023-01-18T12:36:55.340Z,4.47
2023-01-18T12:40:13.486Z,4.52
2023-01-18T12:43:18.939Z,4.49
2023-01-18T12:46:48.048Z,4.54
2023-01-18T12:49:52.854Z,4.35
2023-01-18T12:52:59.847Z,4.40
2023-01-18T12:56:10.637Z,4.19
2023-01-18T12:59:20.123Z,3.97
2023-01-18T13:02:40.803Z,4.03
2023-01-18T13:05:55.857Z,3.98
2023-01-18T13:09:05.579Z,4.02
2023-01-18T13:12:08.531Z,4.33
2023-01-18T13:15:26.512Z,4.36
2023-01-18T13:18:34.158Z,4.37
2023-01-18T13:21:45.774Z,4.56
2023-01-18T13:25:10.569Z,4.39
2023-01-18T13:28:13.151Z,4.41
2023-01-18T13:31:15.947Z,4.52
2023-01-18T13:34:48.033Z,4.63
2023-01-18T13:37:55.981Z,4.80
2023-01-18T13:41:04.590Z,4.77
2023-01-18T13:44:27.328Z,4.48
2023-01-18T13:47:36.124Z,4.74
2023-01-18T13:50:39.782Z,4.46
2023-01-18T13:53:50.510Z,4.97
2023-01-18T13:57:04.726Z,5.22
2023-01-18T14:00:24.703Z,5.54
2023-01-18T14:03:39.171Z,5.82
2023-01-18T14:06:43.954Z,5.79
2023-01-18T14:09:48.052Z,5.63
2023-01-18T14:12:53.007Z,5.45
2023-01-18T14:15:55.762Z,5.49
2023-01-18T14:19:12.296Z,5.35
2023-01-18T14:22:20.915Z,5.15
2023-01-18T14:25:35.687Z,4.92
2023-01-18T14:28:47.226Z,5.03
2023-01-18T14:31:53.808Z,4.89
2023-01-18T14:35:01.446Z,4.85
2023-01-18T14:38:17.860Z,4.63
2023-01-18T14:41:21.292Z,4.29
2023-01-18T14:44:31.316Z,4.37
2023-01-18T14:47:34.262Z,4.40
2023-01-18T14:50:40.212Z,4.52
2023-01-18T14:53:47.563Z,4.47
2023-01-18T14:56:50.976Z,4.31
2023-01-18T15:00:04.513Z,4.42
2023-01-18T15:03:12.964Z,4.52
2023-01-18T15:06:18.590Z,4.49
2023-01-18T15:09:27.231Z,4.56
2023-01-18T15:12:32.452Z,4.50
2023-01-18T15:15:41.607Z,4.42
2023-01-18T15:18:44.374Z,4.46
2023-01-18T15:21:47.438Z,4.39
2023-01-18T15:24:50.417Z,4.31
2023-01-18T15:27:53.797Z,4.34
2023-01-18T15:30:57.116Z,4.40
2023-01-18T15:33:59.699Z,4.31
2023-01-18T15:37:04.855Z,4.24
2023-01-18T15:40:13.602Z,4.16
2023-01-18T15:43:28.539Z,4.19
2023-01-18T15:46:33.331Z,4.14
2023-01-18T15:49:36.285Z,4.11
2023-01-18T15:52:45.415Z,4.05
2023-01-18T15:55:51.596Z,4.02
2023-01-18T15:58:56.199Z,3.91
2023-01-18T16:02:19.192Z,3.87
2023-01-18T16:05:24.138Z,4.05
2023-01-18T16:08:27.036Z,3.90
2023-01-18T16:11:36.978Z,3.89
2023-01-18T16:14:46.416Z,3.87
2023-01-18T16:17:49.221Z,3.90
2023-01-18T16:20:53.018Z,3.94
2023-01-18T16:23:57.357Z,3.87
2023-01-18T16:27:10.294Z,3.82
2023-01-18T16:30:26.508Z,3.87
2023-01-18T16:33:29.178Z,3.88
2023-01-18T16:36:37.983Z,3.89
2023-01-18T16:39:44.959Z,3.84
2023-01-18T16:43:01.608Z,3.84
2023-01-18T16:46:04.808Z,3.88
2023-01-18T16:49:12.299Z,3.80
2023-01-18T16:52:15.375Z,3.75
2023-01-18T16:55:18.488Z,3.62
2023-01-18T16:58:21.908Z,3.51
2023-01-18T17:01:25.113Z,3.55
2023-01-18T17:04:28.059Z,3.57
2023-01-18T17:07:30.914Z,3.53
2023-01-18T17:10:39.741Z,3.17
2023-01-18T17:13:42.827Z,3.35
2023-01-18T17:16:47.254Z,3.43
2023-01-18T17:19:51.794Z,3.36
2023-01-18T17:22:55.929Z,3.24
2023-01-18T17:26:01.851Z,3.17
2023-01-18T17:29:05.400Z,3.18
2023-01-18T17:32:09.789Z,3.22
2023-01-18T17:35:13.497Z,3.40
2023-01-18T17:38:23.771Z,3.34
2023-01-18T17:41:29.251Z,3.38
2023-01-18T17:44:37.431Z,3.53
2023-01-18T17:47:43.018Z,3.50
2023-01-18T17:50:47.200Z,3.44
2023-01-18T17:53:50.211Z,3.43
2023-01-18T17:56:53.603Z,3.40
2023-01-18T17:59:56.729Z,3.40
2023-01-18T18:03:01.219Z,3.41
2023-01-18T18:06:05.199Z,3.45
2023-01-18T18:09:08.354Z,3.46
2023-01-18T18:12:12.883Z,3.50
2023-01-18T18:15:16.089Z,3.52
2023-01-18T18:18:23.131Z,3.50
2023-01-18T18:21:27.899Z,3.49
2023-01-18T18:24:30.599Z,3.39
2023-01-18T18:27:44.959Z,3.44
2023-01-18T18:30:49.277Z,3.47
2023-01-18T18:33:52.453Z,3.48
2023-01-18T18:36:55.452Z,3.43
2023-01-18T18:39:58.503Z,3.37
2023-01-18T18:43:03.070Z,3.30
2023-01-18T18:46:06.410Z,3.25
2023-01-18T18:49:09.677Z,3.20
2023-01-18T18:52:12.913Z,3.25
2023-01-18T18:55:16.737Z,3.19
2023-01-18T18:58:19.706Z,3.05
2023-01-18T19:01:27.755Z,3.03
2023-01-18T19:04:32.587Z,2.96
2023-01-18T19:07:38.535Z,2.87
2023-01-18T19:10:41.945Z,3.02
2023-01-18T19:13:47.492Z,3.10
2023-01-18T19:16:51.348Z,3.11
2023-01-18T19:19:54.253Z,3.03
2023-01-18T19:22:57.188Z,2.79
2023-01-18T19:26:00.564Z,2.95
2023-01-18T19:29:03.654Z,2.95
2023-01-18T19:32:06.620Z,2.93
2023-01-18T19:35:09.621Z,2.98
2023-01-18T19:38:13.300Z,2.80
2023-01-18T19:41:16.780Z,2.79
2023-01-18T19:44:19.971Z,2.90
2023-01-18T19:47:23.250Z,2.92
2023-01-18T19:50:27.408Z,2.97
2023-01-18T19:53:31.470Z,3.01
2023-01-18T19:56:35.025Z,3.04
2023-01-18T19:59:37.866Z,2.91
2023-01-18T20:02:41.635Z,2.79
2023-01-18T20:05:45.207Z,2.87
2023-01-18T20:08:51.312Z,2.83
2023-01-18T20:11:54.468Z,2.88
2023-01-18T20:14:57.937Z,2.89
2023-01-18T20:18:00.934Z,2.84
2023-01-18T20:24:23.211Z,2.77
2023-01-18T20:27:26.127Z,2.76
2023-01-18T20:30:29.377Z,2.78
2023-01-18T20:33:33.392Z,2.84
2023-01-18T20:36:37.005Z,2.75
2023-01-18T20:39:40.287Z,2.68
2023-01-18T20:42:43.614Z,2.74
2023-01-18T20:45:46.697Z,2.81
2023-01-18T20:48:49.875Z,2.77
2023-01-18T20:51:53.264Z,2.73
2023-01-18T20:54:57.239Z,2.77
2023-01-18T20:58:00.461Z,2.89
2023-01-18T21:01:16.951Z,2.94
2023-01-18T21:04:21.088Z,2.93
2023-01-18T21:07:24.308Z,2.93
2023-01-18T21:10:38.800Z,2.99
2023-01-18T21:13:42.559Z,3.07
2023-01-18T21:16:45.606Z,3.05
2023-01-18T21:19:54.066Z,2.97
2023-01-18T21:22:57.965Z,3.08
2023-01-18T21:26:02.727Z,2.96
2023-01-18T21:29:06.385Z,2.94
2023-01-18T21:32:09.719Z,2.97
2023-01-18T21:35:12.680Z,3.02
2023-01-18T21:38:16.491Z,3.01
2023-01-18T21:41:37.805Z,3.00
2023-01-18T21:44:59.053Z,3.00
2023-01-18T21:48:09.304Z,3.05
2023-01-18T21:51:31.147Z,3.09
2023-01-18T21:54:34.412Z,3.11
2023-01-18T21:57:37.837Z,3.11
2023-01-18T22:00:40.981Z,3.12
2023-01-18T22:04:02.854Z,3.14
2023-01-18T22:07:06.047Z,3.20
2023-01-18T22:10:09.691Z,3.14
2023-01-18T22:13:12.528Z,3.18
2023-01-18T22:16:18.154Z,3.18
2023-01-18T22:19:22.369Z,3.23
2023-01-18T22:22:25.256Z,3.25
2023-01-18T22:25:28.343Z,3.25
2023-01-18T22:28:31.567Z,3.12
2023-01-18T22:31:35.127Z,3.01
2023-01-18T22:34:37.963Z,3.02
2023-01-18T22:37:40.857Z,3.06
2023-01-18T22:40:43.753Z,3.17
2023-01-18T22:43:47.291Z,3.16
2023-01-18T22:46:50.317Z,3.16
2023-01-18T22:49:53.365Z,3.15
2023-01-18T22:52:56.027Z,3.15
2023-01-18T22:56:03.315Z,3.13
2023-01-18T22:59:05.968Z,2.98
2023-01-18T23:02:09.527Z,3.05
2023-01-18T23:05:12.548Z,3.11
2023-01-18T23:08:15.279Z,3.10
2023-01-18T23:11:21.612Z,3.10
2023-01-18T23:14:42.709Z,3.10
2023-01-18T23:17:45.450Z,3.03
2023-01-18T23:20:47.986Z,3.05
2023-01-18T23:23:51.185Z,3.08
2023-01-18T23:26:53.849Z,3.03
2023-01-18T23:29:59.544Z,2.69
2023-01-18T23:33:02.141Z,2.53
2023-01-18T23:36:05.524Z,2.39
2023-01-18T23:39:26.724Z,2.31
2023-01-18T23:42:48.188Z,2.18
2023-01-18T23:46:09.829Z,2.10
2023-01-18T23:49:30.921Z,2.10
2023-01-18T23:52:52.514Z,2.11
2023-01-18T23:55:55.131Z,2.13
2023-01-18T23:58:58.404Z,2.26
